^^
Grace C. Lehan Memorial Weather Station Historical Data
Daily Summary for May 7, 2021 Units:  English    Metric   Both
Daily Weekly Monthly Yearly
  High: Low: Average:
Temperature: 42.4 °F 28.1 °F 34 °F
Dew Point: 26.6 °F 22.7 °F 24.1 °F
Humidity: 80% 52% 67%
Wind Speed: 7.7mph 0mph 2.3mph
Wind Gust: 17mph - -
Wind- - NW
Pressure: 30.07 in 29.95 in -
Precipitation: 0.00 in    
 
 
Tabular Data for May 7, 2021
Time Temperature Dew Point Pressure Wind Wind Speed Wind Gust Humidity Rainfall Rate (Hourly) solar
00:04 33.8 °F 24.4 °F 29.95 in NW 2.8 mph 14 mph 68% 0.00 in 0 W/m2
00:09 33.7 °F 24.3 °F 29.95 in NW 4.6 mph 9 mph 68% 0.00 in 0 W/m2
00:14 33.7 °F 24.3 °F 29.95 in NW 4.5 mph 12 mph 68.2% 0.00 in 0 W/m2
00:19 33.7 °F 24.3 °F 29.96 in NW 2.6 mph 12 mph 68% 0.00 in 0 W/m2
00:24 33.7 °F 24.4 °F 29.96 in NW 1.9 mph 12 mph 68.3% 0.00 in 0 W/m2
00:29 33.6 °F 24.3 °F 29.96 in NW 5.3 mph 12 mph 68.3% 0.00 in 0 W/m2
00:34 33.6 °F 24.4 °F 29.96 in NW 2 mph 12 mph 68.5% 0.00 in 0 W/m2
00:39 33.6 °F 24.2 °F 29.97 in NW 4.7 mph 11 mph 68% 0.00 in 0 W/m2
00:44 33.6 °F 24.2 °F 29.96 in NNW 2.9 mph 11 mph 68% 0.00 in 0 W/m2
00:49 33.5 °F 24.1 °F 29.97 in NNW 1.6 mph 11 mph 68% 0.00 in 0 W/m2
00:54 33.5 °F 24.3 °F 29.97 in NW 3.3 mph 11 mph 68.5% 0.00 in 0 W/m2
00:59 33.5 °F 24.4 °F 29.97 in NW 0.9 mph 11 mph 68.8% 0.00 in 0 W/m2
01:04 33.5 °F 24.4 °F 29.96 in NNW 1.5 mph 11 mph 69% 0.00 in 0 W/m2
01:09 33.4 °F 24.3 °F 29.97 in NW 2 mph 10 mph 69% 0.00 in 0 W/m2
01:14 33.3 °F 24.2 °F 29.97 in NNW 0.8 mph 10 mph 69% 0.00 in 0 W/m2
01:19 33.3 °F 24.2 °F 29.97 in NNW 1.2 mph 10 mph 69% 0.00 in 0 W/m2
01:24 33.2 °F 24.2 °F 29.97 in NW 2.4 mph 10 mph 69% 0.00 in 0 W/m2
01:29 33.2 °F 24.2 °F 29.97 in NW 4.3 mph 13 mph 69% 0.00 in 0 W/m2
01:34 33.1 °F 24.1 °F 29.97 in NW 2.6 mph 13 mph 69% 0.00 in 0 W/m2
01:39 33.1 °F 24.1 °F 29.97 in NW 2 mph 8 mph 69% 0.00 in 0 W/m2
01:44 33.1 °F 24.1 °F 29.97 in NW 4 mph 10 mph 69% 0.00 in 0 W/m2
01:49 33.1 °F 24 °F 29.97 in NNW 3.1 mph 10 mph 69% 0.00 in 0 W/m2
01:54 33 °F 24.2 °F 29.98 in NNW 3.5 mph 11 mph 69.7% 0.00 in 0 W/m2
01:59 33 °F 24.3 °F 29.98 in NW 3 mph 11 mph 70% 0.00 in 0 W/m2
02:04 32.9 °F 24.2 °F 29.98 in NW 1.8 mph 11 mph 70% 0.00 in 0 W/m2
02:09 32.9 °F 24.2 °F 29.98 in NW 1.2 mph 10 mph 70% 0.00 in 0 W/m2
02:14 32.8 °F 24.1 °F 29.99 in NW 1.3 mph 10 mph 70% 0.00 in 0 W/m2
02:19 32.8 °F 24.2 °F 29.99 in NW 0.9 mph 10 mph 70.2% 0.00 in 0 W/m2
02:24 32.7 °F 24.4 °F 29.99 in WNW 1.6 mph 10 mph 71% 0.00 in 0 W/m2
02:29 32.6 °F 24.3 °F 29.99 in WNW 2.9 mph 10 mph 71% 0.00 in 0 W/m2
02:34 32.6 °F 24.2 °F 29.99 in NW 1.7 mph 10 mph 71% 0.00 in 0 W/m2
02:39 32.5 °F 24.4 °F 29.99 in NW 3.7 mph 10 mph 71.8% 0.00 in 0 W/m2
02:44 32.5 °F 24.5 °F 29.99 in NW 3.3 mph 11 mph 72% 0.00 in 0 W/m2
02:49 32.5 °F 24.4 °F 29.99 in NW 2.6 mph 11 mph 72% 0.00 in 0 W/m2
02:54 32.4 °F 24.4 °F 29.99 in NNW 2.1 mph 12 mph 72% 0.00 in 0 W/m2
02:59 32.4 °F 24.4 °F 29.99 in NW 3.7 mph 12 mph 72% 0.00 in 0 W/m2
03:04 32.4 °F 24.4 °F 29.99 in NW 2.5 mph 12 mph 72% 0.00 in 0 W/m2
03:09 32.3 °F 24.5 °F 29.99 in NW 2.3 mph 11 mph 72.5% 0.00 in 0 W/m2
03:14 32.3 °F 24.6 °F 29.99 in NNW 1.3 mph 11 mph 73% 0.00 in 0 W/m2
03:19 32.2 °F 24.5 °F 29.99 in NW 2.6 mph 11 mph 73% 0.00 in 0 W/m2
03:24 32.1 °F 24.4 °F 29.99 in NW 1.1 mph 11 mph 73% 0.00 in 0 W/m2
03:29 32.1 °F 24.4 °F 29.99 in NW 4.8 mph 11 mph 73% 0.00 in 0 W/m2
03:34 32 °F 24.3 °F 29.99 in NW 2.3 mph 11 mph 73% 0.00 in 0 W/m2
03:39 32 °F 24.3 °F 29.99 in NW 1.6 mph 7 mph 73% 0.00 in 0 W/m2
03:44 31.9 °F 24.2 °F 29.99 in NNW 2.8 mph 7 mph 73% 0.00 in 0 W/m2
03:49 31.9 °F 24.5 °F 29.99 in NW 1.9 mph 7 mph 73.8% 0.00 in 0 W/m2
03:54 31.9 °F 24.5 °F 29.99 in NNW 2.4 mph 7 mph 73.8% 0.00 in 0 W/m2
03:59 31.9 °F 24.4 °F 29.99 in NW 3.2 mph 11 mph 73.6% 0.00 in 0 W/m2
04:00 31.9 °F 24.6 °F 29.99 in Calm   11 mph 74% 0.00 in 0 W/m2
04:09 31.9 °F 24.4 °F 29.99 in NW 2.5 mph 9 mph 73.6% 0.00 in 0 W/m2
04:14 31.8 °F 24.2 °F 29.99 in NW 2.5 mph 9 mph 73.2% 0.00 in 0 W/m2
04:19 31.8 °F 24.2 °F 29.99 in NW 3.6 mph 9 mph 73.1% 0.00 in 0 W/m2
04:24 31.8 °F 24.4 °F 29.99 in NNW 1.1 mph 9 mph 73.7% 0.00 in 0 W/m2
04:29 31.8 °F 24.3 °F 29.99 in NW 2.9 mph 10 mph 73.5% 0.00 in 0 W/m2
04:34 31.7 °F 24.3 °F 29.99 in NW 1.9 mph 10 mph 73.9% 0.00 in 0 W/m2
04:39 31.7 °F 24.3 °F 29.99 in NW 1.9 mph 9 mph 73.6% 0.00 in 0 W/m2
04:44 31.7 °F 24.3 °F 29.99 in NW 2.6 mph 9 mph 73.7% 0.00 in 0 W/m2
04:49 31.6 °F 24.1 °F 29.99 in NW 1.9 mph 9 mph 73.2% 0.00 in 0 W/m2
04:54 31.6 °F 24 °F 29.99 in NNW 0.4 mph 9 mph 73.2% 0.00 in 0 W/m2
04:59 31.6 °F 23.9 °F 29.99 in NNW 1.6 mph 9 mph 73% 0.00 in 0 W/m2
05:04 31.5 °F 24.2 °F 29.99 in NNW 2.2 mph 9 mph 73.9% 0.00 in 0 W/m2
05:09 31.4 °F 24.1 °F 29.98 in NW 2 mph 11 mph 74% 0.00 in 0 W/m2
05:14 31.4 °F 24.1 °F 29.98 in NW 0.9 mph 11 mph 74% 0.00 in 0 W/m2
05:19 31.3 °F 24 °F 29.99 in NW 1.9 mph 11 mph 74% 0.00 in 0 W/m2
05:24 31.2 °F 23.9 °F 29.99 in Calm   11 mph 74% 0.00 in 0 W/m2
05:29 31.2 °F 23.9 °F 29.99 in NW 0.4 mph 11 mph 74% 0.00 in 0 W/m2
05:34 31.1 °F 23.8 °F 29.99 in NW 0.5 mph 11 mph 74% 0.00 in 0 W/m2
05:39 31 °F 23.7 °F 30.00 in NW 0.3 mph 5 mph 74% 0.00 in 0 W/m2
05:44 30.9 °F 23.6 °F 30.00 in NW 0.1 mph 5 mph 74% 0.00 in 0 W/m2
05:49 30.8 °F 23.7 °F 30.00 in Calm   5 mph 74.4% 0.00 in 0 W/m2
05:54 30.8 °F 23.6 °F 30.00 in Calm   5 mph 74.4% 0.00 in 0 W/m2
05:59 30.7 °F 23.7 °F 30.00 in Calm   5 mph 75% 0.00 in 0 W/m2
06:04 30.6 °F 23.6 °F 30.00 in NW 0.8 mph 5 mph 75% 0.00 in 0 W/m2
06:09 30.5 °F 23.6 °F 30.01 in NW 0.8 mph 5 mph 75% 0.00 in 0 W/m2
06:14 30.5 °F 23.5 °F 30.00 in NW 0.8 mph 6 mph 75% 0.00 in 0 W/m2
06:19 30.5 °F 23.5 °F 30.01 in NW 1.1 mph 6 mph 75% 0.00 in 0 W/m2
06:24 30.5 °F 23.5 °F 30.01 in NNW 1.2 mph 6 mph 75% 0.00 in 0 W/m2
06:29 30.5 °F 23.5 °F 30.01 in NW 0.3 mph 6 mph 75% 0.00 in 0 W/m2
06:34 30.5 °F 23.5 °F 30.02 in NW 0.3 mph 6 mph 75% 0.00 in 0 W/m2
06:39 30.5 °F 23.6 °F 30.02 in NW 1.8 mph 6 mph 75% 0.00 in 0 W/m2
06:44 30.6 °F 23.6 °F 30.02 in NW 0.1 mph 6 mph 74.9% 0.00 in 0 W/m2
06:49 30.6 °F 23.6 °F 30.02 in NW 0.9 mph 6 mph 74.9% 0.00 in 0 W/m2
06:54 30.5 °F 23.5 °F 30.03 in NW 0.2 mph 6 mph 74.8% 0.00 in 0 W/m2
06:59 30.5 °F 23.5 °F 30.03 in NW 1.5 mph 6 mph 75% 0.00 in 0 W/m2
07:04 30.5 °F 23.4 °F 30.03 in NNW 2.3 mph 7 mph 74.4% 0.00 in 0 W/m2
07:09 30.5 °F 23.3 °F 30.03 in NW 0.7 mph 7 mph 74.3% 0.00 in 0 W/m2
07:14 30.5 °F 23.2 °F 30.03 in NNW 0.9 mph 7 mph 74% 0.00 in 0 W/m2
07:19 30.5 °F 23.2 °F 30.03 in NNW 1.6 mph 7 mph 74% 0.00 in 0 W/m2
07:24 30.5 °F 23.2 °F 30.03 in NNW 0.8 mph 7 mph 74% 0.00 in 5 W/m2
07:29 30.4 °F 23.1 °F 30.04 in NNW 1.3 mph 7 mph 74% 0.00 in 7 W/m2
07:34 30.4 °F 23.1 °F 30.04 in NNW 0.8 mph 7 mph 74% 0.00 in 9 W/m2
07:39 30.4 °F 23.2 °F 30.04 in NNW 0.4 mph 6 mph 74.3% 0.00 in 9 W/m2
07:44 30.3 °F 23.3 °F 30.04 in NNW 1.7 mph 7 mph 75% 0.00 in 11 W/m2
07:49 30.3 °F 23.3 °F 30.04 in NNW 0.2 mph 7 mph 75% 0.00 in 19 W/m2
07:54 30.3 °F 23.4 °F 30.04 in NNW 0.2 mph 7 mph 75% 0.00 in 23 W/m2
07:59 30.4 °F 23.4 °F 30.04 in NNW 0.8 mph 7 mph 75% 0.00 in 14 W/m2
08:04 30.4 °F 23.4 °F 30.04 in NNW 4 mph 4 mph 75% 0.00 in 44 W/m2
08:09 30.6 °F 23.6 °F 30.05 in NNW 1.6 mph 6 mph 75% 0.00 in 69 W/m2
08:14 30.9 °F 24 °F 30.05 in NNW 0.2 mph 6 mph 75% 0.00 in 95 W/m2
08:19 31.6 °F 24.5 °F 30.05 in NNW 1 mph 6 mph 74.8% 0.00 in 100 W/m2
08:24 32.3 °F 24.7 °F 30.06 in NNW 1.6 mph 6 mph 73.2% 0.00 in 100 W/m2
08:29 32.8 °F 24.9 °F 30.05 in NNW 1.8 mph 6 mph 72.4% 0.00 in 98 W/m2
08:34 33.2 °F 24.7 °F 30.06 in NNW 2.1 mph 7 mph 70.6% 0.00 in 53 W/m2
08:39 33.3 °F 24.6 °F 30.05 in NW 2.4 mph 10 mph 70% 0.00 in 95 W/m2
08:44 33.4 °F 24.6 °F 30.05 in NW 2.5 mph 10 mph 69.6% 0.00 in 100 W/m2
08:49 33.5 °F 24.4 °F 30.05 in NW 3.9 mph 14 mph 68.9% 0.00 in 163 W/m2
08:54 33.7 °F 24.4 °F 30.05 in NNW 3.8 mph 14 mph 68.4% 0.00 in 163 W/m2
08:59 33.8 °F 24.9 °F 30.06 in NW 6.7 mph 14 mph 69.6% 0.00 in 97 W/m2
09:04 33.7 °F 24 °F 30.06 in NW 4.6 mph 15 mph 67.3% 0.00 in 156 W/m2
09:09 33.8 °F 24.4 °F 30.06 in NNW 3.8 mph 16 mph 68% 0.00 in 156 W/m2
09:14 34.1 °F 24.6 °F 30.06 in NW 2.1 mph 16 mph 67.8% 0.00 in 139 W/m2
09:19 34.4 °F 24.5 °F 30.06 in NW 3.1 mph 16 mph 66.8% 0.00 in 135 W/m2
09:24 34.5 °F 24.4 °F 30.06 in NW 4.5 mph 16 mph 66% 0.00 in 179 W/m2
09:29 34.5 °F 24.1 °F 30.06 in NW 4.1 mph 16 mph 65.4% 0.00 in 141 W/m2
09:34 34.5 °F 24 °F 30.06 in WNW 5.9 mph 16 mph 65.2% 0.00 in 155 W/m2
09:39 34.5 °F 24 °F 30.06 in NW 7.6 mph 15 mph 65% 0.00 in 172 W/m2
09:44 34.6 °F 24 °F 30.06 in NNW 5.7 mph 15 mph 64.8% 0.00 in 116 W/m2
09:49 34.7 °F 24.2 °F 30.06 in NW 1.8 mph 15 mph 65% 0.00 in 81 W/m2
09:54 34.9 °F 24.2 °F 30.06 in NW 5.1 mph 15 mph 64.7% 0.00 in 95 W/m2
09:59 35.1 °F 24.1 °F 30.05 in NNW 5.7 mph 17 mph 64% 0.00 in 63 W/m2
10:04 35.1 °F 23.9 °F 30.05 in NW 6 mph 17 mph 63.2% 0.00 in 90 W/m2
10:09 35.2 °F 23.9 °F 30.05 in NNW 5.8 mph 15 mph 63% 0.00 in 121 W/m2
10:14 35.4 °F 24.1 °F 30.05 in NW 6 mph 15 mph 62.9% 0.00 in 162 W/m2
10:19 35.7 °F 24 °F 30.05 in NW 5.9 mph 15 mph 62% 0.00 in 290 W/m2
10:24 36.3 °F 24.5 °F 30.05 in NNW 2.7 mph 15 mph 62% 0.00 in 364 W/m2
10:29 37 °F 25 °F 30.04 in NW 5 mph 15 mph 61.5% 0.00 in 364 W/m2
10:34 38 °F 25.4 °F 30.04 in NW 5.4 mph 15 mph 60% 0.00 in 415 W/m2
10:39 38.7 °F 25.2 °F 30.03 in NW 7 mph 13 mph 57.9% 0.00 in 434 W/m2
10:44 39.1 °F 25.2 °F 30.03 in NW 3.6 mph 13 mph 57% 0.00 in 445 W/m2
10:49 39.5 °F 25.6 °F 30.03 in NNW 4 mph 14 mph 57% 0.00 in 448 W/m2
10:54 40.1 °F 25.9 °F 30.03 in NNW 5 mph 14 mph 56.7% 0.00 in 422 W/m2
10:59 40.5 °F 25.7 °F 30.03 in NNW 3.8 mph 14 mph 55.1% 0.00 in 378 W/m2
11:04 40.8 °F 26 °F 30.03 in NW 3.2 mph 14 mph 55.3% 0.00 in 332 W/m2
11:09 40.9 °F 25.6 °F 30.03 in NW 3.5 mph 13 mph 54% 0.00 in 165 W/m2
11:14 41.2 °F 26 °F 30.03 in NW 4.7 mph 13 mph 54.4% 0.00 in 292 W/m2
11:19 41.2 °F 25.2 °F 30.03 in WNW 4.9 mph 13 mph 52.7% 0.00 in 257 W/m2
11:24 40.9 °F 26 °F 30.02 in WNW 2.4 mph 13 mph 54.8% 0.00 in 169 W/m2
11:29 40.9 °F 25.6 °F 30.02 in NW 4.6 mph 13 mph 54.1% 0.00 in 288 W/m2
11:34 40.9 °F 25.5 °F 30.01 in NW 3.4 mph 13 mph 54% 0.00 in 309 W/m2
11:39 40.8 °F 25.6 °F 30.01 in WNW 4 mph 10 mph 54.3% 0.00 in 144 W/m2
11:44 40.8 °F 25.4 °F 30.01 in WNW 5.9 mph 12 mph 54% 0.00 in 197 W/m2
11:49 40.9 °F 25.8 °F 30.01 in NW 3.3 mph 12 mph 54.7% 0.00 in 225 W/m2
11:54 41.3 °F 25.9 °F 30.01 in NNW 2 mph 12 mph 53.8% 0.00 in 279 W/m2
11:59 41.9 °F 26.2 °F 30.01 in WNW 5.9 mph 12 mph 53.3% 0.00 in 244 W/m2
12:00 42 °F 25.7 °F 30.01 in NW 4 mph 12 mph 52% 0.00 in 244 W/m2
12:09 41.8 °F 25.7 °F 30.01 in NW 3.6 mph 10 mph 52.5% 0.00 in 243 W/m2
12:14 41.7 °F 25.9 °F 30.00 in WNW 7 mph 15 mph 53.2% 0.00 in 313 W/m2
12:19 41.7 °F 26 °F 30.00 in NW 4.6 mph 15 mph 53.4% 0.00 in 631 W/m2
12:24 42.1 °F 26.6 °F 30.00 in NW 5.5 mph 15 mph 54% 0.00 in 631 W/m2
12:29 42.4 °F 26.3 °F 30.00 in NW 3.2 mph 15 mph 52.7% 0.00 in 246 W/m2
12:34 42.3 °F 26.2 °F 30.00 in NW 6.5 mph 15 mph 52.5% 0.00 in 237 W/m2
12:39 41.8 °F 25.5 °F 30.00 in NW 6.7 mph 15 mph 52% 0.00 in 146 W/m2
12:44 41.2 °F 25.2 °F 30.00 in NNW 6.2 mph 15 mph 52.5% 0.00 in 113 W/m2
12:49 40.8 °F 25.1 °F 30.00 in NNW 3.6 mph 15 mph 53.1% 0.00 in 130 W/m2
12:54 40.6 °F 25.4 °F 30.00 in NW 6.6 mph 15 mph 54.4% 0.00 in 130 W/m2
12:59 40.1 °F 25.1 °F 30.00 in WNW 5.6 mph 15 mph 54.6% 0.00 in 123 W/m2
13:04 39.7 °F 25 °F 30.00 in WNW 6.8 mph 15 mph 55.3% 0.00 in 116 W/m2
13:09 39.3 °F 25 °F 30.00 in NW 5.2 mph 13 mph 56.2% 0.00 in 139 W/m2
13:14 39.1 °F 25 °F 30.00 in NW 5.8 mph 13 mph 56.5% 0.00 in 146 W/m2
13:19 39 °F 25.1 °F 30.00 in NW 3.5 mph 13 mph 57% 0.00 in 135 W/m2
13:24 39.1 °F 25.3 °F 30.00 in NW 4.8 mph 14 mph 57.4% 0.00 in 130 W/m2
13:29 39.2 °F 25.4 °F 30.00 in NW 4.4 mph 14 mph 57.4% 0.00 in 202 W/m2
13:34 39.4 °F 25.7 °F 30.00 in NW 2 mph 14 mph 57.6% 0.00 in 330 W/m2
13:39 39.9 °F 26 °F 30.00 in NW 1.7 mph 6 mph 57.2% 0.00 in 323 W/m2
13:44 40.4 °F 26.1 °F 30.00 in NW 7.2 mph 16 mph 56.2% 0.00 in 162 W/m2
13:49 40.6 °F 25.6 °F 30.00 in NW 7.1 mph 16 mph 54.8% 0.00 in 137 W/m2
13:54 40.5 °F 25.4 °F 30.00 in NNW 4 mph 16 mph 54.4% 0.00 in 113 W/m2
13:59 40.5 °F 25.1 °F 30.00 in NW 7.1 mph 16 mph 53.9% 0.00 in 186 W/m2
14:04 40.2 °F 24.9 °F 30.01 in NW 7.2 mph 16 mph 54% 0.00 in 146 W/m2
14:09 40 °F 24.8 °F 30.01 in NW 6.1 mph 16 mph 54% 0.00 in 209 W/m2
14:14 40 °F 24.7 °F 30.00 in NW 3.8 mph 16 mph 54% 0.00 in 204 W/m2
14:19 40.1 °F 24.8 °F 30.01 in NW 6.1 mph 16 mph 54% 0.00 in 158 W/m2
14:24 40.2 °F 24.9 °F 30.01 in NW 7.7 mph 17 mph 54% 0.00 in 158 W/m2
14:29 40.3 °F 25 °F 30.01 in NW 4.5 mph 17 mph 54% 0.00 in 134 W/m2
14:34 40.4 °F 25.1 °F 30.01 in NW 2.6 mph 17 mph 54% 0.00 in 132 W/m2
14:39 40.5 °F 25.2 °F 30.01 in NW 2.3 mph 12 mph 54.1% 0.00 in 214 W/m2
14:40 40.6 °F 25.4 °F 30.01 in WNW 4.3 mph 12 mph 54.3% 0.00 in 28 W/m2
15:00 40.2 °F 25.3 °F 30.01 in WNW 4 mph 13 mph 55% 0.00 in 53 W/m2
15:30 39.2 °F 24.8 °F 30.02 in NW 5 mph 14 mph 56% 0.00 in 22 W/m2
16:04 37.6 °F 24.1 °F 30.03 in NNW 4.2 mph 14 mph 57.8% 0.00 in 22 W/m2
16:09 37.4 °F 23.9 °F 30.04 in NW 6.3 mph 11 mph 58% 0.00 in 12 W/m2
16:14 37.2 °F 23.8 °F 30.04 in NW 7 mph 15 mph 58% 0.00 in 11 W/m2
16:19 37 °F 23.6 °F 30.04 in NW 4.6 mph 15 mph 58% 0.00 in 11 W/m2
16:24 36.9 °F 23.6 °F 30.04 in NW 1.8 mph 15 mph 58.4% 0.00 in 9 W/m2
16:29 36.7 °F 23.7 °F 30.04 in NW 3.4 mph 15 mph 59% 0.00 in 7 W/m2
16:34 36.5 °F 23.6 °F 30.03 in NW 1.9 mph 15 mph 59.3% 0.00 in 0 W/m2
16:39 36.3 °F 23.8 °F 30.04 in NW 2 mph 10 mph 60% 0.00 in 0 W/m2
16:44 36.1 °F 23.6 °F 30.04 in NW 2 mph 10 mph 60% 0.00 in 0 W/m2
16:49 36 °F 23.7 °F 30.04 in NW 0.7 mph 10 mph 60.7% 0.00 in 0 W/m2
16:54 35.8 °F 23.7 °F 30.04 in NW 0.4 mph 10 mph 61% 0.00 in 0 W/m2
16:59 35.6 °F 23.8 °F 30.05 in WNW 1 mph 10 mph 61.6% 0.00 in 0 W/m2
17:04 35.5 °F 23.7 °F 30.05 in WNW 1.2 mph 6 mph 62% 0.00 in 0 W/m2
17:09 35.3 °F 23.6 °F 30.05 in WNW 0.5 mph 6 mph 62.2% 0.00 in 0 W/m2
17:14 35.1 °F 23.8 °F 30.05 in WNW 1.4 mph 6 mph 63% 0.00 in 0 W/m2
17:19 34.9 °F 23.7 °F 30.05 in WNW 0.7 mph 6 mph 63.2% 0.00 in 0 W/m2
17:24 34.8 °F 23.5 °F 30.05 in WNW 0.8 mph 6 mph 63% 0.00 in 0 W/m2
17:29 34.6 °F 23.7 °F 30.05 in WNW 0.7 mph 6 mph 64% 0.00 in 0 W/m2
17:34 34.5 °F 23.6 °F 30.04 in NW 1.7 mph 11 mph 64% 0.00 in 0 W/m2
17:39 34.3 °F 23.4 °F 30.05 in WNW 2.2 mph 11 mph 64% 0.00 in 0 W/m2
17:44 34.3 °F 23.4 °F 30.05 in WNW 2.1 mph 11 mph 64% 0.00 in 0 W/m2
17:49 34.2 °F 23.3 °F 30.05 in WNW 0.8 mph 11 mph 64% 0.00 in 0 W/m2
17:54 34.1 °F 23.2 °F 30.05 in NW 1.9 mph 11 mph 64.2% 0.00 in 0 W/m2
17:59 33.9 °F 23.2 °F 30.05 in NW 3.3 mph 11 mph 64.4% 0.00 in 0 W/m2
18:04 33.9 °F 23.3 °F 30.05 in NW 3.6 mph 11 mph 64.8% 0.00 in 0 W/m2
18:09 33.8 °F 23.3 °F 30.06 in NW 2.2 mph 10 mph 65% 0.00 in 0 W/m2
18:14 33.8 °F 23.3 °F 30.06 in NW 0.8 mph 10 mph 65% 0.00 in 0 W/m2
18:19 33.7 °F 23.2 °F 30.05 in NW 3.6 mph 11 mph 65% 0.00 in 0 W/m2
18:24 33.6 °F 23.1 °F 30.05 in NW 3.8 mph 11 mph 65% 0.00 in 0 W/m2
18:29 33.6 °F 23.1 °F 30.05 in NW 1.3 mph 11 mph 65% 0.00 in 0 W/m2
18:34 33.5 °F 23.1 °F 30.06 in NW 1.7 mph 11 mph 65% 0.00 in 0 W/m2
18:39 33.5 °F 23 °F 30.06 in NW 1.3 mph 7 mph 65% 0.00 in 0 W/m2
18:44 33.4 °F 23.3 °F 30.06 in NW 1.8 mph 7 mph 65.9% 0.00 in 0 W/m2
18:49 33.3 °F 23.2 °F 30.06 in NW 1.8 mph 7 mph 66% 0.00 in 0 W/m2
18:54 33.3 °F 23.2 °F 30.06 in NW 1.3 mph 7 mph 66% 0.00 in 0 W/m2
18:59 33.2 °F 23.1 °F 30.06 in NW 1.3 mph 7 mph 66% 0.00 in 0 W/m2
19:04 33.2 °F 23.2 °F 30.06 in NNW 0.7 mph 7 mph 66.2% 0.00 in 0 W/m2
19:09 33.1 °F 23.1 °F 30.06 in NNW 0.3 mph 4 mph 66.1% 0.00 in 0 W/m2
19:14 33 °F 23.3 °F 30.06 in NW 1.2 mph 5 mph 67% 0.00 in 0 W/m2
19:19 33 °F 23.2 °F 30.06 in NW 1 mph 6 mph 67% 0.00 in 0 W/m2
19:24 32.9 °F 23.2 °F 30.07 in NW 1.5 mph 11 mph 67% 0.00 in 0 W/m2
19:29 32.9 °F 23.3 °F 30.07 in NW 0.8 mph 11 mph 67.5% 0.00 in 0 W/m2
19:34 32.8 °F 23.4 °F 30.07 in NW 0.5 mph 11 mph 68% 0.00 in 0 W/m2
19:39 32.7 °F 23.3 °F 30.07 in NW 0.6 mph 4 mph 68.1% 0.00 in 0 W/m2
19:44 32.7 °F 23.7 °F 30.06 in NW 0.7 mph 4 mph 69% 0.00 in 0 W/m2
19:49 32.8 °F 23.7 °F 30.06 in NW 0.9 mph 4 mph 69% 0.00 in 0 W/m2
19:54 32.8 °F 23.8 °F 30.06 in NNW 2.1 mph 6 mph 69% 0.00 in 0 W/m2
19:59 32.8 °F 23.8 °F 30.06 in NNW 0.7 mph 6 mph 69.2% 0.00 in 0 W/m2
20:04 32.8 °F 24.1 °F 30.06 in NNW 0.3 mph 1 mph 70% 0.00 in 0 W/m2
20:09 32.8 °F 24.1 °F 30.06 in NNW 1.3 mph 6 mph 70% 0.00 in 0 W/m2
20:14 32.8 °F 24.1 °F 30.06 in NNW 1.1 mph 6 mph 70% 0.00 in 0 W/m2
20:19 32.8 °F 24.1 °F 30.06 in NNW 0.2 mph 6 mph 70% 0.00 in 0 W/m2
20:24 32.7 °F 24 °F 30.06 in NNW 0.5 mph 6 mph 70% 0.00 in 0 W/m2
20:29 32.6 °F 23.9 °F 30.05 in NNW 0.3 mph 6 mph 70% 0.00 in 0 W/m2
20:34 32.5 °F 24 °F 30.05 in NNW 0.2 mph 6 mph 70.7% 0.00 in 0 W/m2
20:39 32.3 °F 23.7 °F 30.05 in NNW 0.1 mph 3 mph 70.2% 0.00 in 0 W/m2
20:44 32.1 °F 23.7 °F 30.05 in NW 1.6 mph 7 mph 71% 0.00 in 0 W/m2
20:49 31.9 °F 23.6 °F 30.05 in NNW 1.1 mph 7 mph 71% 0.00 in 0 W/m2
20:54 31.7 °F 23.7 °F 30.06 in NNW 0.5 mph 7 mph 71.8% 0.00 in 0 W/m2
20:59 31.6 °F 23.6 °F 30.06 in NNW 0.2 mph 7 mph 72% 0.00 in 0 W/m2
21:04 31.5 °F 23.5 °F 30.06 in NNW 0.4 mph 7 mph 72% 0.00 in 0 W/m2
21:09 31.4 °F 23.6 °F 30.06 in Calm   4 mph 72.7% 0.00 in 0 W/m2
21:14 31.2 °F 23.6 °F 30.05 in NNW 0.5 mph 4 mph 73% 0.00 in 0 W/m2
21:19 31.2 °F 23.5 °F 30.05 in NNW 0.1 mph 4 mph 73% 0.00 in 0 W/m2
21:24 31 °F 23.5 °F 30.05 in NNW 0.6 mph 4 mph 73.1% 0.00 in 0 W/m2
21:29 31 °F 23.6 °F 30.05 in Calm   4 mph 73.8% 0.00 in 0 W/m2
21:34 30.9 °F 23.6 °F 30.05 in Calm   4 mph 74% 0.00 in 0 W/m2
21:39 30.8 °F 23.5 °F 30.05 in Calm     74% 0.00 in 0 W/m2
21:44 30.7 °F 23.4 °F 30.05 in NNW 0.1 mph 3 mph 74% 0.00 in 0 W/m2
21:49 30.6 °F 23.5 °F 30.05 in NNW 0.1 mph 3 mph 74.8% 0.00 in 0 W/m2
21:54 30.5 °F 23.5 °F 30.05 in NNW 0.1 mph 3 mph 75% 0.00 in 0 W/m2
21:59 30.3 °F 23.4 °F 30.05 in NNW 0.2 mph 3 mph 75% 0.00 in 0 W/m2
22:04 30.2 °F 23.6 °F 30.05 in Calm   3 mph 75.9% 0.00 in 0 W/m2
22:09 30.1 °F 23.5 °F 30.05 in Calm     76% 0.00 in 0 W/m2
22:14 30 °F 23.4 °F 30.05 in Calm     76% 0.00 in 0 W/m2
22:19 29.9 °F 23.3 °F 30.05 in Calm     76% 0.00 in 0 W/m2
22:24 29.8 °F 23.2 °F 30.05 in Calm     76% 0.00 in 0 W/m2
22:29 29.7 °F 23.1 °F 30.05 in Calm     76.1% 0.00 in 0 W/m2
22:34 29.6 °F 23.3 °F 30.04 in Calm     77% 0.00 in 0 W/m2
22:39 29.5 °F 23.2 °F 30.04 in Calm     77% 0.00 in 0 W/m2
22:44 29.4 °F 23.1 °F 30.04 in Calm     77.2% 0.00 in 0 W/m2
22:49 29.3 °F 23.3 °F 30.04 in Calm     78% 0.00 in 0 W/m2
22:54 29.2 °F 23.2 °F 30.04 in Calm     78% 0.00 in 0 W/m2
22:59 29.1 °F 23.1 °F 30.04 in Calm     78% 0.00 in 0 W/m2
23:09 28.9 °F 22.9 °F 30.04 in Calm     78% 0.00 in 0 W/m2
23:14 28.8 °F 22.8 °F 30.04 in Calm     78% 0.00 in 0 W/m2
23:19 28.7 °F 22.8 °F 30.04 in Calm     78.2% 0.00 in 0 W/m2
23:24 28.7 °F 23 °F 30.03 in Calm     79% 0.00 in 0 W/m2
23:29 28.6 °F 22.9 °F 30.03 in Calm     79% 0.00 in 0 W/m2
23:34 28.5 °F 22.8 °F 30.03 in Calm     79% 0.00 in 0 W/m2
23:39 28.5 °F 22.8 °F 30.03 in Calm     79% 0.00 in 0 W/m2
23:44 28.4 °F 22.7 °F 30.03 in Calm     79% 0.00 in 0 W/m2
23:49 28.3 °F 22.9 °F 30.03 in Calm     79.9% 0.00 in 0 W/m2
23:54 28.3 °F 22.9 °F 30.03 in Calm     80% 0.00 in 0 W/m2
23:59 28.1 °F 22.8 °F 30.04 in Calm     80% 0.00 in 0 W/m2
Hartford County Weather
Compliments of Weather Underground - 4 mb